sensor_id;sensor_type;location;lat;lon;timestamp;pressure;altitude;pressure_sealevel;temperature;humidity
929;BME280;451;47.988;7.842;2022-11-20T00:06:25;98154.41;;;7.88;100.00
929;BME280;451;47.988;7.842;2022-11-20T00:15:28;98160.84;;;8.09;100.00
929;BME280;451;47.988;7.842;2022-11-20T00:24:31;98190.34;;;7.61;100.00
929;BME280;451;47.988;7.842;2022-11-20T00:33:33;98194.22;;;7.57;100.00
929;BME280;451;47.988;7.842;2022-11-20T00:42:35;98170.34;;;7.52;100.00
929;BME280;451;47.988;7.842;2022-11-20T00:51:37;98167.44;;;7.63;100.00
929;BME280;451;47.988;7.842;2022-11-20T01:00:39;97750.81;;;4.99;100.00
929;BME280;451;47.988;7.842;2022-11-20T01:09:40;98183.81;;;7.32;100.00
929;BME280;451;47.988;7.842;2022-11-20T01:18:45;98171.41;;;7.84;100.00
929;BME280;451;47.988;7.842;2022-11-20T01:27:47;98123.81;;;7.22;100.00
929;BME280;451;47.988;7.842;2022-11-20T01:36:50;98212.13;;;7.44;100.00
929;BME280;451;47.988;7.842;2022-11-20T01:55:05;98129.00;;;7.14;100.00
929;BME280;451;47.988;7.842;2022-11-20T02:04:08;98090.03;;;6.86;100.00
929;BME280;451;47.988;7.842;2022-11-20T02:13:10;98020.44;;;5.92;100.00
929;BME280;451;47.988;7.842;2022-11-20T02:22:34;97815.69;;;5.36;100.00
929;BME280;451;47.988;7.842;2022-11-20T02:31:40;98163.09;;;7.38;100.00
929;BME280;451;47.988;7.842;2022-11-20T02:40:42;97920.66;;;5.72;100.00
929;BME280;451;47.988;7.842;2022-11-20T02:49:44;98146.72;;;7.28;100.00
929;BME280;451;47.988;7.842;2022-11-20T02:58:46;97878.44;;;5.43;100.00
929;BME280;451;47.988;7.842;2022-11-20T03:07:48;98086.25;;;6.89;100.00
929;BME280;451;47.988;7.842;2022-11-20T03:16:50;98037.44;;;6.22;100.00
929;BME280;451;47.988;7.842;2022-11-20T03:25:52;98025.69;;;6.26;100.00
929;BME280;451;47.988;7.842;2022-11-20T03:34:53;98166.94;;;7.18;100.00
929;BME280;451;47.988;7.842;2022-11-20T03:43:58;98117.88;;;7.04;100.00
929;BME280;451;47.988;7.842;2022-11-20T03:53:00;98075.41;;;6.76;100.00
929;BME280;451;47.988;7.842;2022-11-20T04:02:01;98118.84;;;6.51;100.00
929;BME280;451;47.988;7.842;2022-11-20T04:20:12;98159.44;;;7.23;100.00
929;BME280;451;47.988;7.842;2022-11-20T04:29:13;98177.50;;;7.42;100.00
929;BME280;451;47.988;7.842;2022-11-20T04:38:17;98135.25;;;7.21;100.00
929;BME280;451;47.988;7.842;2022-11-20T04:47:19;98062.16;;;6.61;100.00
929;BME280;451;47.988;7.842;2022-11-20T04:56:20;98177.28;;;7.27;100.00
929;BME280;451;47.988;7.842;2022-11-20T05:05:22;98178.53;;;7.15;100.00
929;BME280;451;47.988;7.842;2022-11-20T05:14:24;98193.97;;;6.57;100.00
929;BME280;451;47.988;7.842;2022-11-20T05:23:27;98204.72;;;7.32;100.00
929;BME280;451;47.988;7.842;2022-11-20T05:32:29;98168.31;;;7.38;100.00
929;BME280;451;47.988;7.842;2022-11-20T05:41:32;98201.47;;;6.78;100.00
929;BME280;451;47.988;7.842;2022-11-20T05:50:35;97959.72;;;5.64;100.00
929;BME280;451;47.988;7.842;2022-11-20T05:59:36;98173.53;;;7.38;100.00
929;BME280;451;47.988;7.842;2022-11-20T06:08:38;98200.94;;;7.26;100.00
929;BME280;451;47.988;7.842;2022-11-20T06:17:40;98169.13;;;7.39;100.00
929;BME280;451;47.988;7.842;2022-11-20T06:26:41;98114.56;;;7.02;100.00
929;BME280;451;47.988;7.842;2022-11-20T06:35:43;98184.63;;;7.32;100.00
929;BME280;451;47.988;7.842;2022-11-20T06:44:48;97939.41;;;5.76;100.00
929;BME280;451;47.988;7.842;2022-11-20T06:53:53;98114.84;;;5.95;100.00
929;BME280;451;47.988;7.842;2022-11-20T07:02:55;98160.03;;;6.57;100.00
929;BME280;451;47.988;7.842;2022-11-20T07:11:57;98145.31;;;7.08;100.00
929;BME280;451;47.988;7.842;2022-11-20T07:21:17;98231.69;;;7.32;100.00
929;BME280;451;47.988;7.842;2022-11-20T07:30:18;98206.28;;;7.50;100.00
929;BME280;451;47.988;7.842;2022-11-20T07:39:20;98123.00;;;6.87;100.00
929;BME280;451;47.988;7.842;2022-11-20T07:48:22;98219.06;;;7.53;100.00
929;BME280;451;47.988;7.842;2022-11-20T07:57:24;97835.47;;;5.03;100.00
929;BME280;451;47.988;7.842;2022-11-20T08:06:26;98244.00;;;7.40;100.00
929;BME280;451;47.988;7.842;2022-11-20T08:15:28;98250.59;;;7.52;100.00
929;BME280;451;47.988;7.842;2022-11-20T08:24:29;98250.88;;;7.41;100.00
929;BME280;451;47.988;7.842;2022-11-20T08:33:31;98259.19;;;7.36;100.00
929;BME280;451;47.988;7.842;2022-11-20T08:42:34;98211.16;;;7.45;100.00
929;BME280;451;47.988;7.842;2022-11-20T08:51:36;98318.31;;;7.89;100.00
929;BME280;451;47.988;7.842;2022-11-20T09:00:38;97996.03;;;5.83;100.00
929;BME280;451;47.988;7.842;2022-11-20T09:09:40;98168.91;;;6.64;100.00
929;BME280;451;47.988;7.842;2022-11-20T09:18:41;97912.47;;;5.41;100.00
929;BME280;451;47.988;7.842;2022-11-20T09:27:43;98261.38;;;7.49;100.00
929;BME280;451;47.988;7.842;2022-11-20T09:36:47;98260.78;;;7.63;100.00
929;BME280;451;47.988;7.842;2022-11-20T09:55:18;98278.16;;;8.14;100.00
929;BME280;451;47.988;7.842;2022-11-20T10:04:20;98110.97;;;7.37;100.00
929;BME280;451;47.988;7.842;2022-11-20T10:23:30;98301.84;;;8.63;100.00
929;BME280;451;47.988;7.842;2022-11-20T10:32:40;98293.00;;;8.47;100.00
929;BME280;451;47.988;7.842;2022-11-20T10:41:46;98065.00;;;7.18;100.00
929;BME280;451;47.988;7.842;2022-11-20T11:00:09;98222.94;;;8.66;100.00
929;BME280;451;47.988;7.842;2022-11-20T11:09:17;98224.88;;;8.88;100.00
929;BME280;451;47.988;7.842;2022-11-20T11:18:32;98253.38;;;9.07;100.00
929;BME280;451;47.988;7.842;2022-11-20T11:27:45;98184.13;;;8.45;100.00
929;BME280;451;47.988;7.842;2022-11-20T11:36:56;98202.56;;;9.16;100.00
929;BME280;451;47.988;7.842;2022-11-20T11:45:58;98165.84;;;9.08;100.00
929;BME280;451;47.988;7.842;2022-11-20T11:55:02;98161.56;;;9.15;100.00
929;BME280;451;47.988;7.842;2022-11-20T12:04:57;98158.88;;;9.70;97.04
929;BME280;451;47.988;7.842;2022-11-20T12:13:58;98157.06;;;10.02;94.04
929;BME280;451;47.988;7.842;2022-11-20T12:23:17;98149.84;;;10.27;86.07
929;BME280;451;47.988;7.842;2022-11-20T12:32:33;98163.97;;;9.72;92.17
929;BME280;451;47.988;7.842;2022-11-20T13:10:00;98162.34;;;9.32;94.39
929;BME280;451;47.988;7.842;2022-11-20T13:19:10;98143.69;;;9.58;91.02
929;BME280;451;47.988;7.842;2022-11-20T13:37:28;98113.84;;;9.28;89.53
929;BME280;451;47.988;7.842;2022-11-20T13:46:38;97745.81;;;6.88;89.34
929;BME280;451;47.988;7.842;2022-11-20T14:04:53;97724.28;;;6.86;88.35
929;BME280;451;47.988;7.842;2022-11-20T14:14:04;98126.38;;;9.49;90.54
929;BME280;451;47.988;7.842;2022-11-20T14:23:09;98011.81;;;8.71;92.41
929;BME280;451;47.988;7.842;2022-11-20T14:32:15;97903.47;;;8.09;93.09
929;BME280;451;47.988;7.842;2022-11-20T14:41:21;97885.06;;;8.25;93.14
929;BME280;451;47.988;7.842;2022-11-20T14:50:28;98020.25;;;9.51;94.79
929;BME280;451;47.988;7.842;2022-11-20T14:59:34;98017.69;;;9.12;96.07
929;BME280;451;47.988;7.842;2022-11-20T15:08:36;98022.63;;;9.07;93.56
929;BME280;451;47.988;7.842;2022-11-20T15:17:40;97996.41;;;9.07;93.40
929;BME280;451;47.988;7.842;2022-11-20T15:26:42;97968.25;;;9.01;93.01
929;BME280;451;47.988;7.842;2022-11-20T15:35:44;97986.38;;;9.42;91.84
929;BME280;451;47.988;7.842;2022-11-20T15:44:46;97940.50;;;8.53;91.80
929;BME280;451;47.988;7.842;2022-11-20T15:53:48;97922.31;;;8.52;91.13
929;BME280;451;47.988;7.842;2022-11-20T16:02:49;97934.34;;;8.69;90.78
929;BME280;451;47.988;7.842;2022-11-20T16:11:54;98022.81;;;8.59;89.09
929;BME280;451;47.988;7.842;2022-11-20T16:20:56;98000.22;;;8.66;89.77
929;BME280;451;47.988;7.842;2022-11-20T16:29:58;97994.81;;;8.67;90.69
929;BME280;451;47.988;7.842;2022-11-20T16:39:02;97975.00;;;8.57;92.22
929;BME280;451;47.988;7.842;2022-11-20T16:48:04;97982.56;;;8.60;92.56
929;BME280;451;47.988;7.842;2022-11-20T16:57:08;97928.97;;;8.23;91.83
929;BME280;451;47.988;7.842;2022-11-20T17:06:20;97831.38;;;7.27;93.06
929;BME280;451;47.988;7.842;2022-11-20T17:15:22;97972.09;;;8.52;95.64
929;BME280;451;47.988;7.842;2022-11-20T17:24:26;97840.59;;;7.70;95.31
929;BME280;451;47.988;7.842;2022-11-20T17:33:28;98044.47;;;8.44;94.31
929;BME280;451;47.988;7.842;2022-11-20T17:42:33;98047.47;;;7.93;95.84
929;BME280;451;47.988;7.842;2022-11-20T17:51:37;97879.31;;;7.83;94.47
929;BME280;451;47.988;7.842;2022-11-20T18:00:39;97903.91;;;7.74;100.00
929;BME280;451;47.988;7.842;2022-11-20T18:09:40;97978.28;;;7.31;100.00
929;BME280;451;47.988;7.842;2022-11-20T18:18:42;98010.59;;;6.37;100.00
929;BME280;451;47.988;7.842;2022-11-20T18:27:49;98021.44;;;6.25;100.00
929;BME280;451;47.988;7.842;2022-11-20T18:36:52;97950.41;;;5.61;100.00
929;BME280;451;47.988;7.842;2022-11-20T18:46:01;97973.97;;;6.21;100.00
929;BME280;451;47.988;7.842;2022-11-20T18:55:04;97983.38;;;6.14;100.00
929;BME280;451;47.988;7.842;2022-11-20T19:04:10;97987.09;;;6.03;100.00
929;BME280;451;47.988;7.842;2022-11-20T19:13:13;97969.09;;;5.92;100.00
929;BME280;451;47.988;7.842;2022-11-20T19:22:15;97788.47;;;4.87;100.00
929;BME280;451;47.988;7.842;2022-11-20T19:31:22;97975.41;;;6.16;100.00
929;BME280;451;47.988;7.842;2022-11-20T19:40:27;97500.81;;;3.01;100.00
929;BME280;451;47.988;7.842;2022-11-20T19:49:29;97878.34;;;4.91;100.00
929;BME280;451;47.988;7.842;2022-11-20T19:58:31;98003.00;;;6.18;100.00
929;BME280;451;47.988;7.842;2022-11-20T20:07:36;97966.47;;;5.92;100.00
929;BME280;451;47.988;7.842;2022-11-20T20:16:43;97645.22;;;3.02;100.00
929;BME280;451;47.988;7.842;2022-11-20T20:26:45;61949.28;;;-143.76;100.00
929;BME280;451;47.988;7.842;2022-11-20T20:36:47;61949.28;;;-143.76;100.00
929;BME280;451;47.988;7.842;2022-11-20T20:46:50;61949.28;;;-143.76;100.00
929;BME280;451;47.988;7.842;2022-11-20T20:56:12;97645.22;;;3.02;100.00
929;BME280;451;47.988;7.842;2022-11-20T21:05:14;98035.09;;;5.57;100.00
929;BME280;451;47.988;7.842;2022-11-20T21:14:16;98051.31;;;5.69;100.00
929;BME280;451;47.988;7.842;2022-11-20T21:23:20;98038.72;;;5.82;100.00
929;BME280;451;47.988;7.842;2022-11-20T21:32:22;98017.28;;;5.71;100.00
929;BME280;451;47.988;7.842;2022-11-20T21:41:26;97983.03;;;5.65;100.00
929;BME280;451;47.988;7.842;2022-11-20T21:50:28;97974.84;;;5.60;100.00
929;BME280;451;47.988;7.842;2022-11-20T21:59:30;98015.22;;;6.18;100.00
929;BME280;451;47.988;7.842;2022-11-20T22:08:34;97987.50;;;6.17;100.00
929;BME280;451;47.988;7.842;2022-11-20T22:17:36;97993.81;;;6.40;100.00
929;BME280;451;47.988;7.842;2022-11-20T22:26:56;98028.63;;;6.48;100.00
929;BME280;451;47.988;7.842;2022-11-20T22:45:01;98064.75;;;6.61;100.00
929;BME280;451;47.988;7.842;2022-11-20T22:54:03;97878.38;;;5.35;100.00
929;BME280;451;47.988;7.842;2022-11-20T23:03:04;98056.88;;;6.53;100.00
929;BME280;451;47.988;7.842;2022-11-20T23:12:06;97869.94;;;5.41;100.00
929;BME280;451;47.988;7.842;2022-11-20T23:21:14;97941.84;;;6.21;100.00
929;BME280;451;47.988;7.842;2022-11-20T23:30:16;98021.44;;;6.51;100.00
929;BME280;451;47.988;7.842;2022-11-20T23:39:19;97971.72;;;6.26;100.00
929;BME280;451;47.988;7.842;2022-11-20T23:48:23;97760.19;;;4.92;100.00
929;BME280;451;47.988;7.842;2022-11-20T23:57:25;97888.25;;;6.00;100.00
